createdAt,value
2019-05-19T06:47:06.472Z,11.10
2019-05-19T06:52:31.622Z,11.20
2019-05-19T06:57:56.114Z,10.55
2019-05-19T07:03:20.977Z,11.20
2019-05-19T07:08:45.985Z,10.60
2019-05-19T07:14:09.703Z,10.48
2019-05-19T07:19:34.171Z,9.88
2019-05-19T07:24:58.626Z,9.60
2019-05-19T07:30:22.549Z,9.35
2019-05-19T07:35:47.278Z,9.48
2019-05-19T07:41:11.884Z,9.00
2019-05-19T07:46:36.495Z,8.05
2019-05-19T07:52:01.011Z,8.70
2019-05-19T07:57:24.667Z,7.15
2019-05-19T08:02:48.623Z,6.90
2019-05-19T08:08:13.130Z,6.83
2019-05-19T08:13:37.915Z,7.20
2019-05-19T08:19:02.978Z,7.00
2019-05-19T08:24:27.794Z,7.12
2019-05-19T08:29:51.734Z,7.40
2019-05-19T08:35:15.515Z,5.72
2019-05-19T08:40:40.456Z,6.17
2019-05-19T08:46:04.957Z,5.83
2019-05-19T08:51:29.431Z,6.25
2019-05-19T08:56:53.408Z,6.28
2019-05-19T09:02:17.828Z,5.78
2019-05-19T09:07:42.559Z,5.37
2019-05-19T09:13:07.731Z,4.97
2019-05-19T09:18:32.314Z,5.53
2019-05-19T09:23:56.854Z,6.03
2019-05-19T09:29:21.967Z,5.47
2019-05-19T09:34:45.725Z,4.65
2019-05-19T09:40:10.786Z,5.17
2019-05-19T09:45:35.451Z,4.37
2019-05-19T09:50:59.661Z,4.87
2019-05-19T09:56:24.320Z,5.25
2019-05-19T10:01:49.031Z,5.05
2019-05-19T10:07:13.638Z,4.90
2019-05-19T10:12:37.742Z,5.30
2019-05-19T10:18:02.290Z,5.17
2019-05-19T10:23:26.670Z,5.10
2019-05-19T10:28:51.194Z,5.17
2019-05-19T10:34:15.684Z,4.55
2019-05-19T10:39:39.643Z,4.12
2019-05-19T10:45:04.592Z,5.00
2019-05-19T10:50:28.241Z,5.08
2019-05-19T10:55:52.511Z,4.70
2019-05-19T11:01:17.237Z,4.75
2019-05-19T11:06:40.936Z,4.60
2019-05-19T11:12:05.611Z,4.70
2019-05-19T11:17:29.537Z,5.22
2019-05-19T11:22:53.518Z,5.47
2019-05-19T11:28:17.268Z,5.17
2019-05-19T11:33:41.874Z,5.25
2019-05-19T11:39:07.719Z,5.28
2019-05-19T11:44:31.937Z,5.62
2019-05-19T11:49:56.684Z,5.42
2019-05-19T11:55:21.032Z,4.90
2019-05-19T12:00:45.135Z,4.80
2019-05-19T12:06:09.902Z,5.03
2019-05-19T12:11:34.208Z,5.58
2019-05-19T12:16:58.569Z,5.55
2019-05-19T12:22:23.448Z,6.20
2019-05-19T12:27:48.357Z,5.58
2019-05-19T12:33:13.042Z,5.95
2019-05-19T12:38:37.757Z,5.97
2019-05-19T12:44:02.574Z,5.75
2019-05-19T12:49:27.235Z,6.45
2019-05-19T12:54:51.088Z,6.30
2019-05-19T13:00:15.187Z,6.05
2019-05-19T13:05:39.886Z,6.30
2019-05-19T13:11:03.800Z,5.67
2019-05-19T13:16:28.671Z,6.08
2019-05-19T13:21:53.549Z,5.97
2019-05-19T13:27:17.852Z,5.90
2019-05-19T13:32:42.569Z,5.50
2019-05-19T13:38:07.022Z,5.95
2019-05-19T13:43:31.897Z,5.55
2019-05-19T13:48:56.376Z,6.33
2019-05-19T13:54:20.805Z,5.80
2019-05-19T13:59:45.377Z,5.55
2019-05-19T14:05:10.415Z,5.58
2019-05-19T14:10:34.987Z,5.50
2019-05-19T14:15:59.486Z,5.28
2019-05-19T14:21:24.063Z,6.92
2019-05-19T14:26:47.823Z,6.92
2019-05-19T14:32:11.823Z,7.65
2019-05-19T14:37:36.519Z,8.48
2019-05-19T14:43:02.223Z,9.25
2019-05-19T14:48:26.940Z,11.43
2019-05-19T14:53:50.958Z,16.65
2019-05-19T14:59:14.852Z,17.05
2019-05-19T15:04:38.695Z,14.98
2019-05-19T15:10:03.301Z,14.28
2019-05-19T15:15:27.374Z,14.60
2019-05-19T15:20:51.139Z,14.18
2019-05-19T15:26:14.851Z,13.03
2019-05-19T15:31:38.804Z,12.30
2019-05-19T15:37:03.620Z,11.55
2019-05-19T15:42:28.013Z,11.43
2019-05-19T15:47:52.726Z,10.58
2019-05-19T15:53:17.462Z,11.35
2019-05-19T15:58:42.356Z,10.55
2019-05-19T16:04:06.866Z,10.72
2019-05-19T16:09:31.484Z,11.38
2019-05-19T16:14:56.449Z,11.22
2019-05-19T16:20:20.824Z,10.70
2019-05-19T16:25:44.799Z,10.70
2019-05-19T16:31:08.726Z,11.00
2019-05-19T16:36:32.487Z,9.40
2019-05-19T16:41:56.913Z,9.05
2019-05-19T16:47:22.003Z,8.90
2019-05-19T16:52:47.581Z,19.57
2019-05-19T16:58:20.553Z,9.03
2019-05-19T17:03:37.554Z,9.55
2019-05-19T17:09:02.121Z,10.00
2019-05-19T17:14:28.243Z,8.10
2019-05-19T17:19:52.745Z,8.43
2019-05-19T17:25:18.341Z,8.80
2019-05-19T17:30:42.869Z,9.45
2019-05-19T17:36:07.370Z,9.38
2019-05-19T17:41:32.953Z,9.10
2019-05-19T17:46:57.606Z,11.70
2019-05-19T17:52:22.137Z,10.65
2019-05-19T17:57:47.833Z,10.68
2019-05-19T18:03:12.679Z,10.48
2019-05-19T18:08:36.620Z,10.32
2019-05-19T18:14:01.281Z,12.88
2019-05-19T18:19:25.326Z,10.90
2019-05-19T18:24:49.192Z,11.20
2019-05-19T18:30:15.615Z,11.33
2019-05-19T18:35:39.483Z,11.57
2019-05-19T18:41:03.926Z,15.03
2019-05-19T18:46:28.689Z,11.30
2019-05-19T18:51:53.252Z,10.18
2019-05-19T18:57:18.028Z,10.55
2019-05-19T19:02:42.031Z,9.70
2019-05-19T19:08:05.918Z,9.88
2019-05-19T19:13:30.858Z,10.95
2019-05-19T19:18:55.500Z,10.15
2019-05-19T19:24:20.329Z,11.50
2019-05-19T19:29:44.990Z,10.53
2019-05-19T19:35:10.129Z,9.38
2019-05-19T19:40:34.742Z,10.05
2019-05-19T19:45:58.890Z,8.43
2019-05-19T19:51:23.609Z,8.98
2019-05-19T19:56:48.256Z,9.08
2019-05-19T20:02:12.166Z,9.33
2019-05-19T20:07:36.738Z,10.28
2019-05-19T20:13:01.101Z,9.90
2019-05-19T20:18:24.916Z,11.40
2019-05-19T20:23:48.544Z,11.95
2019-05-19T20:29:13.482Z,12.33
2019-05-19T20:34:38.183Z,12.37
2019-05-19T20:40:03.988Z,12.37
2019-05-19T20:45:28.564Z,13.30
2019-05-19T20:50:53.174Z,13.35
2019-05-19T20:56:17.057Z,13.05
2019-05-19T21:01:44.918Z,13.48
2019-05-19T21:07:07.872Z,14.60
2019-05-19T21:12:32.933Z,14.23
2019-05-19T21:17:56.624Z,15.35
2019-05-19T21:23:20.260Z,14.47
2019-05-19T21:28:44.698Z,15.50
2019-05-19T21:34:09.297Z,14.30
2019-05-19T21:39:33.902Z,15.03
2019-05-19T21:44:58.607Z,15.20
2019-05-19T21:50:23.355Z,14.75
2019-05-19T21:55:48.067Z,16.57
2019-05-19T22:01:22.935Z,17.05
2019-05-19T22:06:40.218Z,17.12
2019-05-19T22:12:04.302Z,16.20
2019-05-19T22:17:27.897Z,17.40
2019-05-19T22:22:52.859Z,17.65
2019-05-19T22:28:17.374Z,16.75
2019-05-19T22:33:41.167Z,17.48
2019-05-19T22:39:07.948Z,18.27
2019-05-19T22:44:32.389Z,19.80
2019-05-19T22:49:57.087Z,19.35
2019-05-19T22:55:21.871Z,18.90
2019-05-19T23:00:45.814Z,20.25
2019-05-19T23:06:09.977Z,20.88
2019-05-19T23:11:34.101Z,22.42
2019-05-19T23:16:57.815Z,23.15
2019-05-19T23:22:21.824Z,24.07
2019-05-19T23:27:46.575Z,23.20
2019-05-19T23:33:11.095Z,23.63
2019-05-19T23:38:35.621Z,25.93
2019-05-19T23:44:00.053Z,26.13
2019-05-19T23:49:24.427Z,25.60
2019-05-19T23:54:48.593Z,28.90
